createdAt,value
2018-07-09T00:00:07.182Z,3.23
2018-07-09T00:00:37.958Z,2.70
2018-07-09T00:01:05.760Z,2.63
2018-07-09T00:01:33.493Z,2.80
2018-07-09T00:02:01.097Z,2.83
2018-07-09T00:02:28.685Z,2.77
2018-07-09T00:02:56.255Z,3.13
2018-07-09T00:03:23.956Z,3.00
2018-07-09T00:03:51.552Z,2.70
2018-07-09T00:04:19.132Z,2.47
2018-07-09T00:04:46.888Z,2.97
2018-07-09T00:05:15.717Z,2.93
2018-07-09T00:05:44.520Z,2.93
2018-07-09T00:06:12.223Z,3.03
2018-07-09T00:06:40.084Z,2.90
2018-07-09T00:07:07.733Z,3.03
2018-07-09T00:07:35.341Z,3.07
2018-07-09T00:08:02.944Z,2.97
2018-07-09T00:08:30.563Z,2.47
2018-07-09T00:08:58.214Z,2.80
2018-07-09T00:09:25.853Z,2.37
2018-07-09T00:09:53.408Z,2.73
2018-07-09T00:10:59.933Z,2.87
2018-07-09T00:11:27.517Z,3.10
2018-07-09T00:11:55.098Z,2.67
2018-07-09T00:12:22.770Z,3.00
2018-07-09T00:12:50.381Z,3.23
2018-07-09T00:13:18.083Z,3.10
2018-07-09T00:13:45.700Z,2.70
2018-07-09T00:14:13.333Z,3.13
2018-07-09T00:14:40.996Z,2.63
2018-07-09T00:15:08.725Z,3.17
2018-07-09T00:15:36.636Z,3.07
2018-07-09T00:16:04.403Z,3.10
2018-07-09T00:16:32.040Z,2.83
2018-07-09T00:16:59.673Z,3.13
2018-07-09T00:17:27.264Z,3.07
2018-07-09T00:17:54.899Z,2.70
2018-07-09T00:18:29.404Z,2.83
2018-07-09T00:18:57.067Z,3.10
2018-07-09T00:19:24.680Z,2.70
2018-07-09T00:19:52.265Z,3.20
2018-07-09T00:20:19.886Z,2.63
2018-07-09T00:20:47.648Z,2.63
2018-07-09T00:21:15.421Z,3.13
2018-07-09T00:21:43.106Z,3.33
2018-07-09T00:22:10.898Z,2.80
2018-07-09T00:22:38.596Z,2.73
2018-07-09T00:23:06.219Z,3.00
2018-07-09T00:23:33.894Z,2.60
2018-07-09T00:24:01.540Z,2.97
2018-07-09T00:24:29.212Z,2.90
2018-07-09T00:24:56.824Z,3.10
2018-07-09T00:25:24.556Z,2.93
2018-07-09T00:25:53.044Z,3.07
2018-07-09T00:26:21.112Z,2.57
2018-07-09T00:26:48.719Z,2.80
2018-07-09T00:27:16.365Z,2.50
2018-07-09T00:27:44.095Z,3.20
2018-07-09T00:28:11.880Z,3.20
2018-07-09T00:28:39.463Z,3.70
2018-07-09T00:29:07.048Z,2.60
2018-07-09T00:29:34.707Z,3.00
2018-07-09T00:30:02.365Z,2.53
2018-07-09T00:30:29.962Z,2.63
2018-07-09T00:30:57.565Z,2.97
2018-07-09T00:31:25.464Z,3.00
2018-07-09T00:31:53.399Z,3.17
2018-07-09T00:32:21.076Z,3.30
2018-07-09T00:32:48.696Z,2.90
2018-07-09T00:33:17.053Z,2.90
2018-07-09T00:33:44.808Z,3.30
2018-07-09T00:34:12.656Z,2.70
2018-07-09T00:34:40.379Z,2.70
2018-07-09T00:35:08.005Z,2.60
2018-07-09T00:35:35.588Z,3.00
2018-07-09T00:36:03.227Z,2.73
2018-07-09T00:36:30.843Z,2.90
2018-07-09T00:36:58.519Z,3.30
2018-07-09T00:37:26.156Z,2.90
2018-07-09T00:37:53.760Z,2.67
2018-07-09T00:38:21.404Z,3.07
2018-07-09T00:38:48.986Z,3.37
2018-07-09T00:39:16.607Z,3.17
2018-07-09T00:39:44.451Z,2.90
2018-07-09T00:40:12.371Z,2.80
2018-07-09T00:40:40.001Z,3.00
2018-07-09T00:41:07.739Z,2.77
2018-07-09T00:41:36.156Z,2.67
2018-07-09T00:42:03.797Z,3.37
2018-07-09T00:42:31.472Z,3.30
2018-07-09T00:42:59.131Z,3.30
2018-07-09T00:43:26.898Z,3.13
2018-07-09T00:43:54.561Z,2.93
2018-07-09T00:44:22.193Z,2.50
2018-07-09T00:44:49.921Z,3.17
2018-07-09T00:45:17.894Z,2.80
2018-07-09T00:45:45.657Z,2.60
2018-07-09T00:46:13.593Z,2.97
2018-07-09T00:46:41.290Z,3.07
2018-07-09T00:47:08.971Z,2.77
2018-07-09T00:47:36.627Z,2.90
2018-07-09T00:48:04.376Z,2.70
2018-07-09T00:48:31.998Z,2.87
2018-07-09T00:49:00.159Z,2.47
2018-07-09T00:49:27.953Z,2.80
2018-07-09T00:49:55.630Z,3.13
2018-07-09T00:50:23.528Z,3.27
2018-07-09T00:50:51.197Z,2.83
2018-07-09T00:51:18.857Z,3.10
2018-07-09T00:51:46.736Z,2.80
2018-07-09T00:52:14.589Z,2.77
2018-07-09T00:52:43.098Z,2.67
2018-07-09T00:53:10.766Z,2.90
2018-07-09T00:53:38.475Z,3.03
2018-07-09T00:54:06.154Z,3.40
2018-07-09T00:54:33.837Z,3.00
2018-07-09T00:55:01.534Z,3.33
2018-07-09T00:55:29.431Z,2.73
2018-07-09T00:55:57.062Z,3.20
2018-07-09T00:56:24.720Z,3.20
2018-07-09T00:56:52.372Z,2.83
2018-07-09T00:57:20.164Z,3.23
2018-07-09T00:57:47.971Z,3.73
2018-07-09T00:58:15.944Z,3.00
2018-07-09T00:58:43.608Z,3.03
2018-07-09T00:59:11.489Z,2.83
2018-07-09T00:59:39.268Z,2.70
2018-07-09T01:00:06.928Z,3.17
2018-07-09T01:00:34.768Z,3.20
2018-07-09T01:01:02.356Z,3.00
2018-07-09T01:01:30.127Z,2.97
2018-07-09T01:01:57.828Z,3.10
2018-07-09T01:02:25.538Z,3.00
2018-07-09T01:02:53.149Z,3.60
2018-07-09T01:03:20.835Z,3.20
2018-07-09T01:03:48.512Z,3.23
2018-07-09T01:04:16.255Z,3.77
2018-07-09T01:04:43.957Z,2.93
2018-07-09T01:05:11.600Z,3.00
2018-07-09T01:05:39.196Z,3.10
2018-07-09T01:06:06.762Z,3.13
2018-07-09T01:06:34.472Z,2.80
2018-07-09T01:07:02.068Z,3.67
2018-07-09T01:07:29.693Z,2.90
2018-07-09T01:07:57.363Z,2.77
2018-07-09T01:08:25.580Z,3.17
2018-07-09T01:08:53.261Z,3.60
2018-07-09T01:09:21.126Z,3.00
2018-07-09T01:09:48.768Z,3.30
2018-07-09T01:10:17.513Z,2.90
2018-07-09T01:10:56.432Z,3.23
2018-07-09T01:11:35.308Z,3.30
2018-07-09T01:12:09.324Z,3.10
2018-07-09T01:12:36.916Z,3.50
2018-07-09T01:13:04.560Z,3.33
2018-07-09T01:13:41.607Z,3.40
2018-07-09T01:14:09.251Z,3.03
2018-07-09T01:14:46.959Z,3.07
2018-07-09T01:15:15.089Z,3.33
2018-07-09T01:15:42.670Z,3.47
2018-07-09T01:16:11.008Z,3.10
2018-07-09T01:16:38.580Z,3.40
2018-07-09T01:17:06.388Z,2.93
2018-07-09T01:17:34.032Z,3.43
2018-07-09T01:18:01.608Z,3.07
2018-07-09T01:18:29.154Z,3.77
2018-07-09T01:18:56.816Z,3.47
2018-07-09T01:19:24.500Z,3.43
2018-07-09T01:19:52.173Z,3.47
2018-07-09T01:20:19.909Z,3.57
2018-07-09T01:20:48.152Z,3.07
2018-07-09T01:21:15.835Z,3.20
2018-07-09T01:21:43.442Z,3.10
2018-07-09T01:22:11.032Z,3.47
2018-07-09T01:22:38.769Z,3.60
2018-07-09T01:23:06.350Z,3.23
2018-07-09T01:23:34.113Z,3.43
2018-07-09T01:24:01.773Z,3.50
2018-07-09T01:24:30.223Z,3.10
2018-07-09T01:24:57.938Z,3.50
2018-07-09T01:25:25.556Z,3.53
2018-07-09T01:25:53.240Z,3.60
2018-07-09T01:26:21.017Z,3.40
2018-07-09T01:26:49.104Z,3.60
2018-07-09T01:27:16.744Z,3.30
2018-07-09T01:27:44.383Z,4.00
2018-07-09T01:28:11.964Z,3.70
2018-07-09T01:28:40.632Z,4.00
2018-07-09T01:29:08.482Z,3.30
2018-07-09T01:29:36.081Z,3.70
2018-07-09T01:30:10.488Z,3.33
2018-07-09T01:30:38.175Z,3.10
2018-07-09T01:31:05.871Z,3.70
2018-07-09T01:31:33.503Z,3.30
2018-07-09T01:33:04.390Z,3.37
2018-07-09T01:33:31.947Z,3.63
2018-07-09T01:33:59.686Z,4.00
2018-07-09T01:34:27.292Z,3.63
2018-07-09T01:34:54.960Z,3.50
2018-07-09T01:35:23.141Z,3.73
2018-07-09T01:35:51.092Z,3.57
2018-07-09T01:36:19.618Z,3.43
2018-07-09T01:36:47.519Z,3.30
2018-07-09T01:37:15.182Z,3.53
2018-07-09T01:37:42.951Z,3.47
2018-07-09T01:38:10.581Z,3.50
2018-07-09T01:38:38.263Z,3.70
2018-07-09T01:39:05.944Z,3.60
2018-07-09T01:39:33.585Z,3.37
2018-07-09T01:40:01.246Z,3.70
2018-07-09T01:40:29.499Z,3.87
2018-07-09T01:40:57.103Z,3.97
2018-07-09T01:41:24.809Z,3.70
2018-07-09T01:41:52.398Z,3.30
2018-07-09T01:42:20.016Z,3.63
2018-07-09T01:42:47.717Z,3.73
2018-07-09T01:43:15.346Z,3.20
2018-07-09T01:43:43.080Z,3.80
2018-07-09T01:44:10.781Z,3.63
2018-07-09T01:44:38.315Z,3.37
2018-07-09T01:45:06.102Z,4.23
2018-07-09T01:45:33.717Z,3.70
2018-07-09T01:46:01.403Z,3.70
2018-07-09T01:46:29.002Z,3.70
2018-07-09T01:46:56.623Z,3.17
2018-07-09T01:47:24.254Z,3.40
2018-07-09T01:47:51.866Z,3.37
2018-07-09T01:48:19.490Z,3.50
2018-07-09T01:48:47.101Z,4.07
2018-07-09T01:49:14.692Z,3.70
2018-07-09T01:49:42.370Z,3.60
2018-07-09T01:50:09.970Z,3.37
2018-07-09T01:50:37.540Z,3.90
2018-07-09T01:51:05.588Z,3.77
2018-07-09T01:51:33.173Z,3.50
2018-07-09T01:52:00.823Z,3.57
2018-07-09T01:52:28.773Z,3.70
2018-07-09T01:52:56.425Z,4.20
2018-07-09T01:53:24.062Z,3.30
2018-07-09T01:53:51.676Z,4.30
2018-07-09T01:54:19.313Z,3.87
2018-07-09T01:54:46.914Z,3.93
2018-07-09T01:55:14.467Z,3.53
2018-07-09T01:55:42.032Z,4.00
2018-07-09T01:56:09.583Z,3.43
2018-07-09T01:56:37.130Z,3.60
2018-07-09T01:57:04.800Z,3.60
2018-07-09T01:57:32.424Z,3.77
2018-07-09T01:58:00.050Z,3.77
2018-07-09T01:58:27.719Z,4.33
2018-07-09T01:58:55.364Z,4.07
2018-07-09T01:59:22.916Z,3.87
2018-07-09T01:59:50.625Z,3.60
2018-07-09T02:00:18.220Z,3.90
2018-07-09T02:00:45.836Z,3.63
2018-07-09T02:01:13.427Z,3.97
2018-07-09T02:01:41.029Z,4.43
2018-07-09T02:02:08.635Z,3.70
2018-07-09T02:02:36.245Z,3.83
2018-07-09T02:03:03.888Z,4.33
2018-07-09T02:03:31.455Z,3.90
2018-07-09T02:03:59.066Z,4.10
2018-07-09T02:04:26.991Z,3.57
2018-07-09T02:04:54.771Z,3.80
2018-07-09T02:05:22.259Z,3.50
2018-07-09T02:05:49.848Z,3.53
2018-07-09T02:06:17.513Z,4.00
2018-07-09T02:06:45.157Z,3.70
2018-07-09T02:07:12.835Z,4.43
2018-07-09T02:07:40.424Z,3.80
2018-07-09T02:08:08.320Z,3.57
2018-07-09T02:08:35.915Z,3.87
2018-07-09T02:09:04.810Z,4.30
2018-07-09T02:09:32.443Z,3.80
2018-07-09T02:10:00.086Z,4.17
2018-07-09T02:10:27.799Z,3.97
2018-07-09T02:10:55.502Z,3.80
2018-07-09T02:11:23.130Z,3.80
2018-07-09T02:11:50.690Z,3.77
2018-07-09T02:12:18.408Z,3.97
2018-07-09T02:12:46.029Z,3.80
2018-07-09T02:13:13.661Z,4.13
2018-07-09T02:13:41.272Z,4.07
2018-07-09T02:14:08.978Z,4.23
2018-07-09T02:15:11.000Z,4.00
2018-07-09T02:15:38.564Z,4.23
2018-07-09T02:16:06.169Z,4.07
2018-07-09T02:16:33.855Z,3.80
2018-07-09T02:17:01.428Z,3.80
2018-07-09T02:17:29.083Z,4.40
2018-07-09T02:17:56.697Z,3.60
2018-07-09T02:18:24.284Z,4.00
2018-07-09T02:19:26.484Z,3.87
2018-07-09T02:19:54.129Z,4.23
2018-07-09T02:20:21.704Z,4.67
2018-07-09T02:20:49.283Z,4.30
2018-07-09T02:21:16.899Z,4.23
2018-07-09T02:21:44.503Z,3.83
2018-07-09T02:22:12.092Z,4.20
2018-07-09T02:22:40.419Z,4.00
2018-07-09T02:23:08.064Z,4.30
2018-07-09T02:23:35.688Z,4.00
2018-07-09T02:24:03.424Z,4.23
2018-07-09T02:24:31.060Z,4.60
2018-07-09T02:24:58.698Z,3.77
2018-07-09T02:25:26.484Z,4.27
2018-07-09T02:25:54.428Z,4.17
2018-07-09T02:26:22.055Z,4.23
2018-07-09T02:26:49.839Z,4.00
2018-07-09T02:27:17.393Z,4.30
2018-07-09T02:27:44.989Z,4.10
2018-07-09T02:28:12.681Z,3.90
2018-07-09T02:28:40.494Z,4.20
2018-07-09T02:29:08.141Z,4.67
2018-07-09T02:29:35.745Z,4.00
2018-07-09T02:30:03.441Z,3.97
2018-07-09T02:30:31.101Z,3.77
2018-07-09T02:30:58.743Z,4.87
2018-07-09T02:31:26.326Z,4.10
2018-07-09T02:31:53.940Z,4.70
2018-07-09T02:32:21.577Z,4.73
2018-07-09T02:32:49.212Z,4.37
2018-07-09T02:33:16.762Z,3.80
2018-07-09T02:33:44.324Z,4.30
2018-07-09T02:34:11.898Z,4.37
2018-07-09T02:34:39.526Z,4.23
2018-07-09T02:35:07.130Z,4.60
2018-07-09T02:35:34.813Z,4.37
2018-07-09T02:36:02.429Z,4.60
2018-07-09T02:36:30.048Z,4.33
2018-07-09T02:36:57.701Z,4.80
2018-07-09T02:37:25.325Z,4.23
2018-07-09T02:37:53.402Z,4.10
2018-07-09T02:38:21.009Z,4.17
2018-07-09T02:38:48.575Z,3.93
2018-07-09T02:39:16.191Z,4.30
2018-07-09T02:39:43.851Z,4.47
2018-07-09T02:40:11.322Z,4.57
2018-07-09T02:40:38.934Z,4.53
2018-07-09T02:41:06.673Z,4.33
2018-07-09T02:41:34.388Z,4.13
2018-07-09T02:42:02.000Z,4.63
2018-07-09T02:42:29.571Z,4.10
2018-07-09T02:42:57.162Z,4.03
2018-07-09T02:43:25.037Z,4.07
2018-07-09T02:43:52.741Z,4.07
2018-07-09T02:44:20.431Z,4.27
2018-07-09T02:44:48.099Z,3.47
2018-07-09T02:45:15.694Z,4.27
2018-07-09T02:45:43.363Z,4.30
2018-07-09T02:46:11.257Z,4.17
2018-07-09T02:46:38.912Z,4.50
2018-07-09T02:47:06.930Z,3.97
2018-07-09T02:47:34.458Z,4.60
2018-07-09T02:48:02.007Z,4.17
2018-07-09T02:48:29.591Z,4.13
2018-07-09T02:48:57.220Z,4.30
2018-07-09T02:49:24.820Z,4.17
2018-07-09T02:49:52.415Z,4.43
2018-07-09T02:50:20.087Z,4.30
2018-07-09T02:50:47.677Z,4.63
2018-07-09T02:51:15.253Z,4.47
2018-07-09T02:51:42.986Z,4.00
2018-07-09T02:52:10.834Z,4.33
2018-07-09T02:52:38.417Z,4.60
2018-07-09T02:53:06.096Z,4.53
2018-07-09T02:53:33.926Z,4.53
2018-07-09T02:54:01.529Z,4.60
2018-07-09T02:54:29.122Z,4.43
2018-07-09T02:54:56.708Z,4.77
2018-07-09T02:55:24.367Z,4.33
2018-07-09T02:55:52.025Z,4.50
2018-07-09T02:56:19.631Z,4.60
2018-07-09T02:56:47.245Z,4.90
2018-07-09T02:57:14.829Z,4.67
2018-07-09T02:57:42.454Z,4.27
2018-07-09T02:58:10.277Z,4.50
2018-07-09T02:58:37.871Z,4.40
2018-07-09T02:59:05.803Z,5.03
2018-07-09T02:59:33.511Z,4.20
2018-07-09T03:00:01.122Z,4.70
2018-07-09T03:00:28.748Z,4.20
2018-07-09T03:00:56.360Z,4.87
2018-07-09T03:01:23.997Z,4.70
2018-07-09T03:01:51.630Z,5.10
2018-07-09T03:02:19.243Z,4.33
2018-07-09T03:02:46.852Z,4.63
2018-07-09T03:03:14.435Z,4.60
2018-07-09T03:03:42.083Z,4.50
2018-07-09T03:04:09.721Z,4.17
2018-07-09T03:04:37.676Z,4.40
2018-07-09T03:05:05.347Z,3.87
2018-07-09T03:05:32.950Z,3.97
2018-07-09T03:06:00.532Z,4.73
2018-07-09T03:06:28.079Z,4.37
2018-07-09T03:06:55.829Z,4.33
2018-07-09T03:07:23.518Z,5.07
2018-07-09T03:07:51.458Z,4.27
2018-07-09T03:08:19.045Z,4.13
2018-07-09T03:08:46.628Z,4.80
2018-07-09T03:09:14.262Z,5.03
2018-07-09T03:09:41.863Z,4.87
2018-07-09T03:10:09.580Z,5.57
2018-07-09T03:10:37.315Z,4.47
2018-07-09T03:11:05.484Z,5.13
2018-07-09T03:11:33.140Z,4.30
2018-07-09T03:12:00.719Z,4.80
2018-07-09T03:12:28.263Z,4.73
2018-07-09T03:12:55.875Z,4.40
2018-07-09T03:13:23.536Z,5.03
2018-07-09T03:13:51.779Z,4.30
2018-07-09T03:14:19.469Z,5.30
2018-07-09T03:14:47.019Z,5.03
2018-07-09T03:15:14.712Z,4.70
2018-07-09T03:15:42.371Z,4.90
2018-07-09T03:16:10.423Z,4.77
2018-07-09T03:16:38.193Z,4.83
2018-07-09T03:17:05.787Z,4.97
2018-07-09T03:17:33.419Z,4.83
2018-07-09T03:18:01.003Z,4.63
2018-07-09T03:18:28.528Z,5.23
2018-07-09T03:18:56.164Z,5.10
2018-07-09T03:19:23.718Z,5.27
2018-07-09T03:19:51.312Z,4.87
2018-07-09T03:20:18.976Z,5.07
2018-07-09T03:20:46.588Z,4.90
2018-07-09T03:21:14.268Z,4.83
2018-07-09T03:21:41.828Z,4.93
2018-07-09T03:22:09.492Z,4.77
2018-07-09T03:22:37.108Z,5.10
2018-07-09T03:23:04.805Z,4.70
2018-07-09T03:23:32.277Z,4.60
2018-07-09T03:23:59.827Z,5.13
2018-07-09T03:24:27.343Z,5.40
2018-07-09T03:24:55.057Z,5.03
2018-07-09T03:25:22.625Z,5.37
2018-07-09T03:25:50.177Z,5.77
2018-07-09T03:26:17.871Z,5.70
2018-07-09T03:26:45.473Z,5.00
2018-07-09T03:27:13.031Z,5.10
2018-07-09T03:27:40.870Z,5.03
2018-07-09T03:28:08.630Z,5.07
2018-07-09T03:28:36.265Z,6.10
2018-07-09T03:29:03.879Z,5.00
2018-07-09T03:29:31.561Z,5.33
2018-07-09T03:29:59.120Z,5.40
2018-07-09T03:30:26.616Z,4.80
2018-07-09T03:30:54.188Z,5.00
2018-07-09T03:31:21.802Z,4.83
2018-07-09T03:31:49.367Z,5.33
2018-07-09T03:32:16.929Z,5.20
2018-07-09T03:32:44.545Z,5.83
2018-07-09T03:33:12.295Z,5.93
2018-07-09T03:33:39.969Z,5.07
2018-07-09T03:34:08.547Z,5.40
2018-07-09T03:34:36.103Z,5.27
2018-07-09T03:35:03.687Z,5.30
2018-07-09T03:35:32.605Z,5.43
2018-07-09T03:36:00.880Z,5.57
2018-07-09T03:36:28.455Z,5.13
2018-07-09T03:36:56.033Z,5.33
2018-07-09T03:37:23.585Z,5.43
2018-07-09T03:37:51.144Z,5.03
2018-07-09T03:38:18.953Z,4.97
2018-07-09T03:38:46.535Z,5.47
2018-07-09T03:39:14.151Z,5.27
2018-07-09T03:39:41.863Z,5.00
2018-07-09T03:40:09.462Z,5.73
2018-07-09T03:40:39.046Z,5.03
2018-07-09T03:41:06.969Z,5.13
2018-07-09T03:41:34.511Z,5.70
2018-07-09T03:42:02.052Z,4.93
2018-07-09T03:42:29.692Z,4.97
2018-07-09T03:42:57.300Z,5.33
2018-07-09T03:43:25.063Z,5.23
2018-07-09T03:43:52.821Z,5.43
2018-07-09T03:44:20.396Z,5.70
2018-07-09T03:44:47.982Z,5.23
2018-07-09T03:45:15.603Z,5.17
2018-07-09T03:45:44.252Z,5.27
2018-07-09T03:46:13.708Z,5.20
2018-07-09T03:46:41.282Z,6.30
2018-07-09T03:47:08.836Z,5.13
2018-07-09T03:47:36.400Z,5.73
2018-07-09T03:48:04.490Z,5.70
2018-07-09T03:48:32.147Z,6.20
2018-07-09T03:48:59.892Z,5.13
2018-07-09T03:49:27.539Z,5.27
2018-07-09T03:49:55.117Z,5.57
2018-07-09T03:50:22.827Z,5.40
2018-07-09T03:50:50.588Z,5.77
2018-07-09T03:51:18.348Z,5.73
2018-07-09T03:51:45.938Z,5.43
2018-07-09T03:52:13.596Z,5.90
2018-07-09T03:52:41.395Z,5.83
2018-07-09T03:53:08.951Z,5.43
2018-07-09T03:53:36.579Z,5.47
2018-07-09T03:54:04.156Z,5.50
2018-07-09T03:54:31.984Z,5.27
2018-07-09T03:54:59.745Z,6.07
2018-07-09T03:55:27.581Z,5.80
2018-07-09T03:55:55.239Z,6.03
2018-07-09T03:56:22.805Z,6.10
2018-07-09T03:56:50.627Z,5.80
2018-07-09T03:57:18.404Z,5.87
2018-07-09T03:57:46.052Z,5.67
2018-07-09T03:58:13.807Z,5.47
2018-07-09T03:58:41.743Z,5.57
2018-07-09T03:59:09.360Z,5.57
2018-07-09T03:59:37.127Z,5.03
2018-07-09T04:00:04.716Z,5.80
2018-07-09T04:00:32.406Z,5.30
2018-07-09T04:01:00.078Z,5.80
2018-07-09T04:01:27.676Z,5.40
2018-07-09T04:01:55.295Z,5.80
2018-07-09T04:02:22.926Z,5.60
2018-07-09T04:02:50.637Z,6.00
2018-07-09T04:03:18.623Z,5.60
2018-07-09T04:03:46.376Z,6.17
2018-07-09T04:04:14.198Z,5.43
2018-07-09T04:04:41.876Z,6.17
2018-07-09T04:05:09.643Z,6.07
2018-07-09T04:05:37.211Z,6.23
2018-07-09T04:06:04.922Z,5.60
2018-07-09T04:06:32.935Z,6.33
2018-07-09T04:07:00.561Z,6.07
2018-07-09T04:07:28.254Z,5.70
2018-07-09T04:07:55.854Z,6.17
2018-07-09T04:08:23.525Z,5.77
2018-07-09T04:08:51.135Z,6.00
2018-07-09T04:09:18.797Z,6.13
2018-07-09T04:09:46.446Z,5.50
2018-07-09T04:10:14.064Z,5.93
2018-07-09T04:10:41.610Z,5.70
2018-07-09T04:11:09.223Z,5.83
2018-07-09T04:11:36.883Z,6.00
2018-07-09T04:12:04.431Z,5.70
2018-07-09T04:12:31.997Z,6.07
2018-07-09T04:12:59.604Z,6.70
2018-07-09T04:13:27.345Z,6.17
2018-07-09T04:13:55.047Z,6.57
2018-07-09T04:14:22.599Z,5.97
2018-07-09T04:14:50.288Z,6.20
2018-07-09T04:15:17.956Z,6.13
2018-07-09T04:15:45.587Z,6.53
2018-07-09T04:16:13.366Z,6.50
2018-07-09T04:16:40.970Z,5.60
2018-07-09T04:17:09.784Z,6.20
2018-07-09T04:17:37.372Z,6.13
2018-07-09T04:18:04.941Z,5.70
2018-07-09T04:18:32.552Z,6.90
2018-07-09T04:19:00.092Z,6.43
2018-07-09T04:19:27.720Z,6.60
2018-07-09T04:19:55.288Z,6.93
2018-07-09T04:20:22.903Z,5.80
2018-07-09T04:20:51.062Z,5.83
2018-07-09T04:21:19.025Z,6.03
2018-07-09T04:21:46.820Z,5.87
2018-07-09T04:22:15.824Z,6.53
2018-07-09T04:22:43.388Z,6.30
2018-07-09T04:23:10.951Z,6.10
2018-07-09T04:23:38.545Z,6.10
2018-07-09T04:24:06.124Z,6.20
2018-07-09T04:24:33.680Z,6.07
2018-07-09T04:25:01.246Z,6.30
2018-07-09T04:25:28.812Z,6.20
2018-07-09T04:25:56.388Z,6.47
2018-07-09T04:26:24.026Z,6.47
2018-07-09T04:26:51.650Z,6.23
2018-07-09T04:27:19.231Z,6.20
2018-07-09T04:27:46.917Z,6.70
2018-07-09T04:28:14.653Z,6.53
2018-07-09T04:28:42.248Z,6.33
2018-07-09T04:29:09.801Z,6.87
2018-07-09T04:29:37.371Z,6.83
2018-07-09T04:30:05.043Z,6.37
2018-07-09T04:30:32.643Z,6.73
2018-07-09T04:31:00.313Z,6.70
2018-07-09T04:31:27.896Z,6.77
2018-07-09T04:31:55.395Z,6.73
2018-07-09T04:32:23.001Z,6.50
2018-07-09T04:32:50.692Z,6.83
2018-07-09T04:33:18.532Z,6.40
2018-07-09T04:33:46.072Z,6.27
2018-07-09T04:34:13.738Z,6.40
2018-07-09T04:34:41.277Z,7.23
2018-07-09T04:35:09.767Z,6.40
2018-07-09T04:35:37.333Z,6.37
2018-07-09T04:36:05.012Z,7.10
2018-07-09T04:36:32.571Z,6.40
2018-07-09T04:37:00.147Z,6.37
2018-07-09T04:37:27.696Z,6.10
2018-07-09T04:37:55.712Z,6.20
2018-07-09T04:38:23.258Z,6.83
2018-07-09T04:38:50.932Z,6.80
2018-07-09T04:39:18.866Z,6.90
2018-07-09T04:39:46.450Z,6.80
2018-07-09T04:40:14.169Z,6.63
2018-07-09T04:40:41.750Z,6.60
2018-07-09T04:41:09.392Z,6.90
2018-07-09T04:41:37.059Z,6.17
2018-07-09T04:42:04.692Z,6.87
2018-07-09T04:42:32.309Z,7.17
2018-07-09T04:42:59.864Z,7.10
2018-07-09T04:43:28.445Z,7.27
2018-07-09T04:43:56.176Z,7.23
2018-07-09T04:44:23.835Z,7.00
2018-07-09T04:44:51.447Z,7.23
2018-07-09T04:45:19.049Z,6.97
2018-07-09T04:45:46.729Z,7.50
2018-07-09T04:46:14.428Z,6.97
2018-07-09T04:46:42.015Z,7.80
2018-07-09T04:47:09.611Z,7.30
2018-07-09T04:47:37.661Z,7.17
2018-07-09T04:48:05.550Z,6.93
2018-07-09T04:48:33.158Z,7.53
2018-07-09T04:49:01.227Z,7.63
2018-07-09T04:49:28.883Z,7.30
2018-07-09T04:49:56.517Z,7.23
2018-07-09T04:50:24.163Z,7.73
2018-07-09T04:50:51.810Z,7.97
2018-07-09T04:51:19.372Z,7.67
2018-07-09T04:51:46.975Z,7.13
2018-07-09T04:52:14.630Z,7.60
2018-07-09T04:52:42.319Z,7.53
2018-07-09T04:53:09.878Z,7.83
2018-07-09T04:53:37.506Z,7.53
2018-07-09T04:54:05.901Z,7.30
2018-07-09T04:54:33.517Z,7.27
2018-07-09T04:55:01.087Z,8.30
2018-07-09T04:55:29.508Z,7.50
2018-07-09T04:55:57.176Z,7.43
2018-07-09T04:56:25.339Z,8.20
2018-07-09T04:56:53.368Z,8.27
2018-07-09T04:57:20.996Z,7.90
2018-07-09T04:57:48.599Z,7.60
2018-07-09T04:58:16.214Z,8.10
2018-07-09T04:58:43.892Z,7.77
2018-07-09T04:59:11.531Z,8.70
2018-07-09T04:59:39.140Z,8.27
2018-07-09T05:00:07.642Z,7.93
2018-07-09T05:00:35.920Z,8.60
2018-07-09T05:01:03.520Z,8.00
2018-07-09T05:01:31.170Z,8.50
2018-07-09T05:01:58.915Z,8.10
2018-07-09T05:02:26.669Z,8.50
2018-07-09T05:02:54.550Z,8.20
2018-07-09T05:03:22.172Z,8.30
2018-07-09T05:03:49.753Z,8.63
2018-07-09T05:04:17.373Z,8.60
2018-07-09T05:04:44.980Z,8.73
2018-07-09T05:05:13.719Z,7.90
2018-07-09T05:05:41.381Z,8.70
2018-07-09T05:06:08.957Z,7.73
2018-07-09T05:06:36.579Z,8.07
2018-07-09T05:07:04.476Z,8.00
2018-07-09T05:07:32.196Z,8.67
2018-07-09T05:07:59.989Z,8.10
2018-07-09T05:08:27.787Z,8.53
2018-07-09T05:08:55.473Z,8.37
2018-07-09T05:09:23.176Z,8.67
2018-07-09T05:09:50.796Z,7.97
2018-07-09T05:10:18.808Z,8.43
2018-07-09T05:10:46.459Z,8.03
2018-07-09T05:11:14.029Z,9.00
2018-07-09T05:11:41.615Z,8.43
2018-07-09T05:12:09.213Z,8.70
2018-07-09T05:12:37.016Z,9.00
2018-07-09T05:13:04.738Z,55.43
2018-07-09T05:13:32.411Z,25.50
2018-07-09T05:14:00.030Z,13.50
2018-07-09T05:14:27.730Z,9.57
2018-07-09T05:14:55.591Z,8.87
2018-07-09T05:15:23.188Z,8.50
2018-07-09T05:15:50.975Z,8.77
2018-07-09T05:16:18.535Z,8.07
2018-07-09T05:16:46.078Z,8.13
2018-07-09T05:17:13.686Z,8.67
2018-07-09T05:17:41.265Z,8.10
2018-07-09T05:18:08.820Z,8.83
2018-07-09T05:18:36.413Z,8.20
2018-07-09T05:19:04.096Z,8.93
2018-07-09T05:19:31.797Z,9.37
2018-07-09T05:19:59.421Z,9.63
2018-07-09T05:20:27.065Z,8.13
2018-07-09T05:20:54.668Z,8.43
2018-07-09T05:21:22.291Z,8.40
2018-07-09T05:21:49.870Z,7.80
2018-07-09T05:22:17.465Z,8.47
2018-07-09T05:22:45.053Z,9.03
2018-07-09T05:23:12.677Z,8.43
2018-07-09T05:23:40.236Z,8.03
2018-07-09T05:24:07.796Z,8.20
2018-07-09T05:24:35.338Z,8.47
2018-07-09T05:25:03.045Z,8.13
2018-07-09T05:25:30.781Z,8.13
2018-07-09T05:25:59.909Z,9.20
2018-07-09T05:26:27.600Z,7.73
2018-07-09T05:26:55.151Z,8.20
2018-07-09T05:27:22.736Z,8.40
2018-07-09T05:27:50.328Z,7.57
2018-07-09T05:28:17.901Z,8.47
2018-07-09T05:28:45.487Z,6.97
2018-07-09T05:29:13.076Z,7.67
2018-07-09T05:29:40.697Z,7.57
2018-07-09T05:30:08.287Z,8.13
2018-07-09T05:30:35.891Z,8.40
2018-07-09T05:31:03.615Z,7.70
2018-07-09T05:31:31.212Z,8.23
2018-07-09T05:31:58.819Z,7.77
2018-07-09T05:32:26.389Z,7.70
2018-07-09T05:32:53.995Z,8.70
2018-07-09T05:33:21.658Z,7.87
2018-07-09T05:33:49.152Z,8.37
2018-07-09T05:34:16.843Z,8.23
2018-07-09T05:34:44.404Z,8.00
2018-07-09T05:35:11.999Z,7.43
2018-07-09T05:35:39.521Z,8.30
2018-07-09T05:36:07.100Z,14.50
2018-07-09T05:36:34.800Z,9.43
2018-07-09T05:37:02.408Z,7.73
2018-07-09T05:37:29.924Z,7.47
2018-07-09T05:37:57.537Z,7.90
2018-07-09T05:38:25.591Z,7.33
2018-07-09T05:38:53.207Z,7.20
2018-07-09T05:39:20.693Z,7.30
2018-07-09T05:39:48.692Z,6.70
2018-07-09T05:40:16.423Z,7.47
2018-07-09T05:40:44.071Z,7.60
2018-07-09T05:41:11.759Z,6.80
2018-07-09T05:41:39.367Z,7.23
2018-07-09T05:42:06.983Z,6.87
2018-07-09T05:42:35.589Z,7.20
2018-07-09T05:43:03.287Z,7.40
2018-07-09T05:43:31.008Z,6.90
2018-07-09T05:43:58.735Z,7.83
2018-07-09T05:44:26.389Z,7.47
2018-07-09T05:44:53.960Z,7.03
2018-07-09T05:45:21.932Z,7.23
2018-07-09T05:45:49.529Z,7.13
2018-07-09T05:46:17.200Z,7.57
2018-07-09T05:46:44.841Z,6.70
2018-07-09T05:47:12.485Z,7.00
2018-07-09T05:47:40.440Z,7.50
2018-07-09T05:48:08.277Z,7.57
2018-07-09T05:48:36.334Z,6.87
2018-07-09T05:49:04.263Z,7.23
2018-07-09T05:49:31.939Z,6.43
2018-07-09T05:49:59.688Z,6.97
2018-07-09T05:50:27.273Z,7.70
2018-07-09T05:50:54.889Z,6.77
2018-07-09T05:51:22.588Z,6.53
2018-07-09T05:51:50.330Z,6.60
2018-07-09T05:52:17.974Z,6.97
2018-07-09T05:52:45.768Z,7.00
2018-07-09T05:53:13.340Z,7.00
2018-07-09T05:53:41.091Z,6.50
2018-07-09T05:54:08.811Z,6.67
2018-07-09T05:54:36.710Z,6.37
2018-07-09T05:55:04.524Z,6.87
2018-07-09T05:55:32.171Z,6.83
2018-07-09T05:56:00.631Z,6.90
2018-07-09T05:56:28.351Z,6.87
2018-07-09T05:56:55.861Z,6.10
2018-07-09T05:57:23.516Z,5.90
2018-07-09T05:57:51.172Z,7.57
2018-07-09T05:58:18.871Z,7.00
2018-07-09T05:58:46.500Z,6.70
2018-07-09T05:59:14.154Z,6.23
2018-07-09T05:59:42.329Z,7.13
2018-07-09T06:00:09.933Z,7.20
2018-07-09T06:00:37.583Z,6.60
2018-07-09T06:01:05.233Z,6.83
2018-07-09T06:01:32.953Z,6.13
2018-07-09T06:02:00.495Z,5.80
2018-07-09T06:02:28.168Z,6.03
2018-07-09T06:02:55.795Z,6.80
2018-07-09T06:03:23.783Z,6.87
2018-07-09T06:03:51.396Z,6.80
2018-07-09T06:04:18.997Z,7.30
2018-07-09T06:04:46.594Z,7.00
2018-07-09T06:05:14.151Z,6.63
2018-07-09T06:05:41.788Z,6.60
2018-07-09T06:06:09.372Z,5.90
2018-07-09T06:06:37.148Z,6.60
2018-07-09T06:07:05.060Z,6.43
2018-07-09T06:07:32.893Z,6.33
2018-07-09T06:08:00.641Z,6.03
2018-07-09T06:08:28.501Z,6.30
2018-07-09T06:08:56.526Z,6.57
2018-07-09T06:09:24.431Z,6.00
2018-07-09T06:09:52.027Z,6.37
2018-07-09T06:10:20.035Z,6.97
2018-07-09T06:10:47.772Z,7.20
2018-07-09T06:11:15.708Z,6.40
2018-07-09T06:11:43.275Z,6.27
2018-07-09T06:12:10.829Z,6.10
2018-07-09T06:12:38.477Z,6.03